Corona de Tucson, Arizona
Current Conditions -  °F | °C
As of 5:53 PM on Monday 22 Dec 2014 (Local Time) from KTUS Reporting Station
Clear Clear  
Wind Chill: 60°   Ceiling: Unl
Heat Index: 60°   Visibility: 10mi
Dew Point: 39°   Wind: 7mph
Humidity: 46%   Direction: 290°WNW
Pressure: 29.95"   Gusts: NA
Location:  31.9353°N, 110.697°W
Report Text: KTUS 230053Z 29006KT 10SM CLR 16/04 A2995 RMK AO2 SLP124 T01560039 $
Loading
Personal Weather Stations






























Interactive Weather Map New forecast layout! Learn more

10-Day Weather Forecast

Advertisements
Track Severe Weather on mobile